Main page
METAR-TAF:

METAR-TAF

Airports :

Liverpool John Lennon Airport

Liverpool, England

latitude: 53-20N, longitude: 002-51W, elevation: 26 m

Current weather observation

The report was made 20 minutes ago, at 15:50 UTC
Wind 7 kt from the East/Southeast, varying between East and Southeast
Temperature 25°C
Humidity 36%
Pressure 1030 hPa
Visibility 10 km or more
no clouds below 1500 m and no cumulonimbus

METAR: EGGP 281550Z 11007KT 080V140 CAVOK 25/09 Q1030

Time: 17:10 (16:10 UTC)

Forecast

The report was made 5 hours and 16 minutes ago, at 10:54 UTC
Forecast valid from 28 at 12 UTC to 29 at 12 UTC
Wind 6 kt from the South/Southeast
Visibility 10 km or more
no clouds below 1500 m and no cumulonimbus

TAF: EGGP 281054Z 2812/2912 15006KT CAVOK

Weather observations and forecasts of more than 4000 airports (METAR and TAF reports).

The available stations are represented by yellow and red dots on the map.

Hover mouse over dot to see the name of the station.

Then click to see weather observations and forecasts.

To change the map : click on the green buttons with a black cross to zoom in, on the green button with a dash to zoom out, or on the green arrows for adjacent maps.


METAR-TAF: